Portland, Texas
Current Conditions -  °F | °C
As of 7:55 AM on Thursday 30 Oct 2014 (Local Time) from KTFP Reporting Station
Haze Haze  
Wind Chill: 70°   Ceiling: Unl
Heat Index: 70°   Visibility: 3mi
Dew Point: 69°   Wind: 5mph
Humidity: 95%   Direction: 40°NE
Pressure: 30.08"   Gusts: NA
Location:  27.88°N, 97.32°W
Report Text: KTFP 301255Z AUTO 04004KT 3SM BR CLR 21/20 A3008 RMK AO2 T02120203
Loading
Personal Weather Stations






























Interactive Weather Map
Tropical Storm Tracking
New forecast layout! Learn more

10-Day Weather Forecast

Advertisements
Track Severe Weather on mobile